Goodville, Texas
Current Conditions -  °F | °C
As of 6:15 AM on Friday 28 Nov 2014 (Local Time) from KTPL Reporting Station
Clear Clear  
Wind Chill: 31°   Ceiling: Unl
Heat Index: 37°   Visibility: 10mi
Dew Point: 30°   Wind: 8mph
Humidity: 75%   Direction: 160°SSE
Pressure: 30.29"   Gusts: NA
Location:  31.1912°N, 97.0719°W
Report Text: KTPL 281215Z AUTO 16007KT 10SM CLR 03/M01 A3029 RMK AO1
Loading
Personal Weather Stations






























Interactive Weather Map New forecast layout! Learn more

10-Day Weather Forecast

Advertisements
Track Severe Weather on mobile